createdAt,value
2018-02-21T00:02:02.987Z,36.35
2018-02-21T00:04:32.642Z,35.90
2018-02-21T00:07:01.206Z,37.03
2018-02-21T00:19:12.962Z,34.58
2018-02-21T00:21:44.416Z,35.38
2018-02-21T00:24:12.405Z,36.75
2018-02-21T00:26:40.004Z,37.00
2018-02-21T00:29:14.952Z,36.28
2018-02-21T00:31:46.182Z,36.47
2018-02-21T00:34:13.044Z,37.10
2018-02-21T00:36:45.936Z,36.65
2018-02-21T00:39:12.699Z,38.05
2018-02-21T00:41:39.420Z,37.90
2018-02-21T00:44:10.557Z,37.70
2018-02-21T00:46:37.294Z,37.05
2018-02-21T00:49:03.941Z,37.35
2018-02-21T00:51:41.853Z,37.65
2018-02-21T00:54:23.362Z,37.38
2018-02-21T00:56:50.378Z,38.55
2018-02-21T00:59:17.309Z,38.83
2018-02-21T01:01:44.636Z,40.58
2018-02-21T01:04:19.604Z,41.03
2018-02-21T01:06:47.212Z,39.33
2018-02-21T01:09:30.080Z,38.53
2018-02-21T01:12:01.748Z,39.95
2018-02-21T01:14:31.082Z,38.90
2018-02-21T01:16:58.284Z,41.75
2018-02-21T01:19:25.013Z,37.88
2018-02-21T01:21:51.736Z,41.65
2018-02-21T01:24:19.605Z,39.78
2018-02-21T01:26:46.650Z,42.70
2018-02-21T01:29:14.199Z,40.25
2018-02-21T01:31:41.839Z,43.00
2018-02-21T01:34:10.143Z,44.13
2018-02-21T01:36:49.546Z,41.33
2018-02-21T01:39:23.102Z,43.00
2018-02-21T01:41:54.733Z,40.40
2018-02-21T01:44:27.595Z,41.40
2018-02-21T01:46:58.163Z,39.40
2018-02-21T01:49:29.150Z,41.20
2018-02-21T01:52:01.274Z,41.37
2018-02-21T01:54:34.493Z,42.85
2018-02-21T01:57:02.927Z,41.33
2018-02-21T01:59:32.698Z,40.12
2018-02-21T02:02:03.927Z,43.10
2018-02-21T02:04:30.766Z,40.17
2018-02-21T02:06:58.087Z,39.95
2018-02-21T02:09:30.801Z,41.40
2018-02-21T02:12:00.914Z,44.08
2018-02-21T02:14:28.270Z,39.22
2018-02-21T02:16:55.803Z,40.55
2018-02-21T02:19:23.873Z,39.65
2018-02-21T02:22:00.323Z,41.25
2018-02-21T02:24:29.260Z,40.08
2018-02-21T02:27:00.060Z,41.37
2018-02-21T02:29:34.880Z,39.05
2018-02-21T02:32:08.793Z,42.30
2018-02-21T02:34:42.460Z,43.28
2018-02-21T02:37:15.038Z,44.13
2018-02-21T02:40:03.427Z,44.95
2018-02-21T02:42:34.237Z,41.08
2018-02-21T02:45:02.577Z,41.37
2018-02-21T02:47:33.053Z,42.85
2018-02-21T02:50:06.250Z,41.08
2018-02-21T02:52:40.364Z,41.53
2018-02-21T02:58:04.707Z,43.35
2018-02-21T03:00:35.386Z,43.22
2018-02-21T03:03:03.102Z,43.75
2018-02-21T03:05:34.097Z,41.20
2018-02-21T03:08:09.548Z,44.65
2018-02-21T03:10:40.738Z,40.95
2018-02-21T03:13:12.479Z,43.53
2018-02-21T03:15:53.063Z,43.95
2018-02-21T03:18:19.837Z,43.70
2018-02-21T03:20:50.272Z,45.92
2018-02-21T03:23:23.074Z,40.70
2018-02-21T03:25:50.734Z,46.97
2018-02-21T03:28:17.661Z,44.35
2018-02-21T03:30:49.314Z,47.30
2018-02-21T03:33:20.621Z,44.75
2018-02-21T03:45:37.153Z,40.60
2018-02-21T03:48:13.655Z,43.50
2018-02-21T03:50:44.700Z,44.15
2018-02-21T03:53:11.556Z,43.63
2018-02-21T03:55:38.273Z,42.80
2018-02-21T03:58:04.940Z,40.70
2018-02-21T04:00:32.340Z,44.35
2018-02-21T04:02:59.011Z,40.72
2018-02-21T04:05:33.043Z,41.78
2018-02-21T04:08:07.323Z,40.10
2018-02-21T04:10:34.590Z,39.03
2018-02-21T04:13:16.809Z,41.15
2018-02-21T04:15:48.799Z,40.83
2018-02-21T04:18:22.217Z,38.53
2018-02-21T04:20:51.622Z,40.22
2018-02-21T04:23:18.431Z,39.47
2018-02-21T04:25:50.163Z,37.20
2018-02-21T04:28:21.190Z,39.10
2018-02-21T04:30:50.879Z,39.63
2018-02-21T04:33:36.506Z,39.40
2018-02-21T04:36:03.268Z,38.42
2018-02-21T04:38:31.003Z,37.15
2018-02-21T04:40:58.227Z,38.15
2018-02-21T04:43:31.758Z,38.15
2018-02-21T04:46:07.626Z,38.65
2018-02-21T04:48:35.107Z,38.75
2018-02-21T04:51:06.664Z,36.50
2018-02-21T04:53:39.685Z,37.60
2018-02-21T04:56:17.264Z,37.25
2018-02-21T04:59:00.318Z,36.08
2018-02-21T05:01:31.093Z,39.47
2018-02-21T05:04:04.334Z,40.22
2018-02-21T05:06:31.836Z,36.20
2018-02-21T05:09:07.103Z,37.50
2018-02-21T05:11:34.011Z,35.28
2018-02-21T05:14:01.701Z,39.25
2018-02-21T05:16:47.603Z,36.80
2018-02-21T05:19:20.210Z,37.33
2018-02-21T05:21:51.496Z,35.45
2018-02-21T05:24:19.637Z,36.90
2018-02-21T05:26:58.606Z,35.80
2018-02-21T05:29:32.747Z,37.70
2018-02-21T05:32:15.349Z,36.35
2018-02-21T05:34:48.961Z,35.70
2018-02-21T05:37:28.333Z,34.03
2018-02-21T05:39:58.519Z,34.85
2018-02-21T05:42:56.422Z,33.47
2018-02-21T05:45:24.051Z,34.50
2018-02-21T05:47:50.884Z,34.42
2018-02-21T05:50:21.919Z,32.75
2018-02-21T05:52:54.996Z,35.85
2018-02-21T05:55:27.377Z,33.72
2018-02-21T05:57:57.031Z,33.28
2018-02-21T06:00:26.358Z,36.40
2018-02-21T06:02:53.102Z,37.53
2018-02-21T06:05:20.278Z,33.50
2018-02-21T06:07:53.149Z,34.90
2018-02-21T06:10:24.184Z,32.67
2018-02-21T06:12:59.983Z,34.53
2018-02-21T06:15:28.540Z,32.95
2018-02-21T06:18:17.584Z,34.90
2018-02-21T06:20:45.603Z,32.15
2018-02-21T06:23:13.880Z,32.88
2018-02-21T06:25:40.608Z,34.88
2018-02-21T06:28:07.245Z,32.53
2018-02-21T06:30:33.945Z,31.95
2018-02-21T06:33:00.582Z,33.90
2018-02-21T06:35:27.218Z,32.70
2018-02-21T06:37:59.032Z,33.92
2018-02-21T06:40:25.784Z,34.67
2018-02-21T06:42:53.296Z,34.08
2018-02-21T06:45:20.724Z,33.88
2018-02-21T06:47:47.359Z,37.10
2018-02-21T06:50:14.034Z,35.88
2018-02-21T06:52:40.678Z,35.47
2018-02-21T06:55:07.375Z,32.60
2018-02-21T06:57:34.016Z,32.60
2018-02-21T07:00:00.655Z,33.40
2018-02-21T07:02:33.239Z,34.55
2018-02-21T07:04:59.908Z,35.63
2018-02-21T07:07:26.551Z,35.13
2018-02-21T07:09:53.312Z,33.20
2018-02-21T07:12:24.346Z,31.25
2018-02-21T07:14:54.951Z,32.78
2018-02-21T07:17:21.624Z,33.67
2018-02-21T07:19:48.284Z,31.67
2018-02-21T07:22:15.043Z,35.25
2018-02-21T07:24:41.725Z,32.05
2018-02-21T07:27:08.379Z,29.70
2018-02-21T07:29:35.088Z,31.87
2018-02-21T07:32:01.739Z,33.42
2018-02-21T07:34:28.422Z,32.38
2018-02-21T07:36:55.148Z,32.58
2018-02-21T07:39:21.885Z,32.30
2018-02-21T07:41:48.581Z,30.62
2018-02-21T07:44:15.975Z,32.90
2018-02-21T07:46:42.620Z,31.05
2018-02-21T07:49:09.268Z,32.00
2018-02-21T07:51:35.956Z,31.40
2018-02-21T07:54:02.603Z,31.80
2018-02-21T07:56:29.280Z,30.83
2018-02-21T07:58:55.979Z,30.25
2018-02-21T08:01:26.544Z,32.33
2018-02-21T08:03:53.417Z,29.77
2018-02-21T08:06:24.173Z,29.23
2018-02-21T08:08:50.871Z,31.35
2018-02-21T08:11:21.672Z,32.35
2018-02-21T08:13:48.356Z,31.92
2018-02-21T08:16:15.037Z,30.17
2018-02-21T08:18:41.837Z,30.02
2018-02-21T08:21:09.456Z,30.62
2018-02-21T08:23:36.111Z,31.65
2018-02-21T08:26:02.843Z,32.22
2018-02-21T08:28:29.564Z,29.70
2018-02-21T08:30:57.049Z,29.87
2018-02-21T08:33:23.703Z,31.08
2018-02-21T08:35:51.268Z,29.95
2018-02-21T08:38:17.937Z,32.05
2018-02-21T08:40:44.592Z,30.17
2018-02-21T08:43:11.252Z,30.33
2018-02-21T08:45:39.735Z,30.25
2018-02-21T08:48:06.383Z,31.35
2018-02-21T08:50:33.062Z,30.40
2018-02-21T08:53:00.340Z,31.20
2018-02-21T08:55:27.043Z,30.15
2018-02-21T08:57:53.725Z,34.83
2018-02-21T09:00:20.323Z,32.90
2018-02-21T09:02:46.962Z,32.97
2018-02-21T09:05:17.957Z,30.27
2018-02-21T09:07:44.596Z,32.90
2018-02-21T09:10:15.012Z,30.37
2018-02-21T09:12:41.684Z,31.62
2018-02-21T09:15:08.358Z,30.55
2018-02-21T09:17:35.066Z,29.00
2018-02-21T09:20:01.684Z,31.58
2018-02-21T09:22:32.736Z,29.52
2018-02-21T09:24:59.401Z,30.27
2018-02-21T09:27:26.887Z,29.48
2018-02-21T09:29:57.511Z,30.20
2018-02-21T09:32:24.159Z,31.85
2018-02-21T09:34:51.675Z,31.35
2018-02-21T09:37:22.013Z,31.02
2018-02-21T09:39:48.701Z,31.08
2018-02-21T09:42:15.339Z,31.75
2018-02-21T09:44:42.450Z,31.87
2018-02-21T09:47:09.157Z,31.98
2018-02-21T09:49:35.895Z,31.17
2018-02-21T09:52:02.629Z,33.38
2018-02-21T09:54:29.268Z,32.85
2018-02-21T09:56:55.915Z,31.42
2018-02-21T09:59:22.557Z,33.92
2018-02-21T10:01:49.661Z,35.63
2018-02-21T10:04:16.300Z,36.30
2018-02-21T10:06:42.956Z,35.73
2018-02-21T10:09:09.674Z,37.03
2018-02-21T10:11:36.337Z,36.77
2018-02-21T10:14:03.032Z,36.17
2018-02-21T10:16:29.696Z,37.33
2018-02-21T10:18:56.346Z,37.77
2018-02-21T10:21:23.931Z,36.60
2018-02-21T10:23:50.642Z,37.60
2018-02-21T10:26:17.325Z,38.57
2018-02-21T10:28:43.986Z,38.33
2018-02-21T10:31:10.626Z,37.53
2018-02-21T10:33:37.302Z,38.20
2018-02-21T10:36:04.143Z,36.27
2018-02-21T10:38:30.872Z,34.72
2018-02-21T10:40:57.526Z,34.75
2018-02-21T10:43:24.339Z,31.50
2018-02-21T10:45:56.800Z,30.15
2018-02-21T10:48:25.009Z,31.50
2018-02-21T10:50:51.779Z,29.70
2018-02-21T10:53:18.503Z,27.87
2018-02-21T10:55:46.855Z,27.48
2018-02-21T10:58:13.519Z,28.45
2018-02-21T11:00:47.682Z,27.23
2018-02-21T11:03:23.293Z,26.23
2018-02-21T11:05:50.075Z,27.27
2018-02-21T11:08:16.721Z,26.30
2018-02-21T11:10:44.064Z,23.98
2018-02-21T11:13:11.404Z,26.73
2018-02-21T11:15:42.758Z,27.02
2018-02-21T11:18:13.708Z,25.60
2018-02-21T11:20:44.409Z,24.58
2018-02-21T11:23:16.095Z,25.23
2018-02-21T11:25:43.108Z,23.48
2018-02-21T11:28:10.501Z,24.42
2018-02-21T11:30:38.966Z,26.02
2018-02-21T11:33:06.322Z,23.27
2018-02-21T11:35:39.630Z,21.23
2018-02-21T11:38:10.214Z,22.48
2018-02-21T11:40:37.080Z,20.75
2018-02-21T11:43:07.695Z,20.00
2018-02-21T11:45:35.853Z,22.00
2018-02-21T11:48:05.584Z,21.77
2018-02-21T11:50:39.238Z,22.17
2018-02-21T11:53:07.624Z,19.85
2018-02-21T11:55:34.422Z,20.73
2018-02-21T11:58:05.084Z,20.40
2018-02-21T12:00:32.871Z,22.30
2018-02-21T12:03:00.685Z,21.37
2018-02-21T12:05:27.359Z,21.60
2018-02-21T12:08:03.716Z,22.83
2018-02-21T12:10:32.273Z,20.37
2018-02-21T12:13:02.755Z,19.10
2018-02-21T12:15:32.937Z,20.65
2018-02-21T12:18:01.638Z,20.35
2018-02-21T12:20:28.333Z,19.50
2018-02-21T12:22:59.079Z,20.35
2018-02-21T12:25:27.623Z,21.20
2018-02-21T12:27:59.240Z,21.58
2018-02-21T12:30:25.963Z,19.20
2018-02-21T12:33:14.331Z,20.65
2018-02-21T12:35:46.268Z,20.58
2018-02-21T12:38:14.759Z,18.95
2018-02-21T12:40:49.308Z,19.48
2018-02-21T12:43:31.309Z,18.10
2018-02-21T12:46:05.089Z,16.90
2018-02-21T12:48:32.785Z,18.50
2018-02-21T12:51:06.042Z,17.73
2018-02-21T12:53:37.857Z,17.52
2018-02-21T12:56:09.057Z,18.52
2018-02-21T12:58:40.577Z,15.55
2018-02-21T13:01:08.912Z,18.62
2018-02-21T13:03:35.602Z,17.42
2018-02-21T13:06:02.281Z,17.48
2018-02-21T13:08:28.888Z,17.80
2018-02-21T13:10:55.598Z,15.98
2018-02-21T13:13:22.263Z,15.93
2018-02-21T13:15:48.899Z,15.73
2018-02-21T13:18:15.618Z,15.95
2018-02-21T13:20:42.204Z,15.82
2018-02-21T13:23:08.892Z,15.18
2018-02-21T13:25:35.528Z,15.32
2018-02-21T13:28:02.228Z,14.93
2018-02-21T13:30:29.443Z,14.20
2018-02-21T13:32:59.944Z,15.45
2018-02-21T13:35:30.772Z,15.48
2018-02-21T13:37:57.416Z,15.30
2018-02-21T13:40:24.999Z,14.27
2018-02-21T13:42:52.296Z,13.07
2018-02-21T13:45:18.933Z,15.25
2018-02-21T13:47:45.908Z,13.70
2018-02-21T13:50:12.557Z,16.42
2018-02-21T13:52:39.189Z,15.05
2018-02-21T13:55:05.872Z,16.10
2018-02-21T13:57:32.560Z,16.70
2018-02-21T13:59:59.200Z,19.05
2018-02-21T14:02:25.853Z,18.33
2018-02-21T14:04:52.544Z,17.45
2018-02-21T14:07:19.234Z,16.95
2018-02-21T14:09:45.880Z,19.80
2018-02-21T14:12:12.591Z,18.20
2018-02-21T14:14:39.246Z,19.70
2018-02-21T14:17:05.871Z,19.40
2018-02-21T14:19:33.100Z,18.85
2018-02-21T14:21:59.816Z,16.80
2018-02-21T14:24:26.451Z,18.92
2018-02-21T14:26:53.121Z,17.52
2018-02-21T14:29:19.738Z,17.77
2018-02-21T14:31:50.961Z,16.80
2018-02-21T14:34:17.600Z,17.08
2018-02-21T14:36:44.340Z,17.95
2018-02-21T14:39:10.961Z,19.98
2018-02-21T14:41:37.607Z,17.42
2018-02-21T14:44:04.220Z,18.55
2018-02-21T14:46:30.857Z,18.48
2018-02-21T14:48:57.585Z,16.70
2018-02-21T14:51:24.222Z,17.85
2018-02-21T14:53:50.888Z,17.87
2018-02-21T14:56:17.526Z,18.08
2018-02-21T14:58:44.170Z,18.27
2018-02-21T15:01:10.873Z,17.00
2018-02-21T15:03:38.226Z,18.52
2018-02-21T15:06:04.874Z,19.50
2018-02-21T15:08:35.960Z,19.25
2018-02-21T15:11:02.629Z,18.30
2018-02-21T15:13:30.242Z,17.77
2018-02-21T15:15:56.935Z,18.05
2018-02-21T15:18:28.134Z,17.73
2018-02-21T15:20:58.861Z,18.20
2018-02-21T15:23:25.996Z,17.00
2018-02-21T15:25:52.635Z,18.42
2018-02-21T15:28:20.174Z,16.42
2018-02-21T15:30:47.015Z,17.30
2018-02-21T15:33:13.682Z,17.45
2018-02-21T15:35:40.322Z,18.42
2018-02-21T15:38:07.111Z,20.33
2018-02-21T15:40:33.780Z,19.87
2018-02-21T15:43:00.452Z,19.25
2018-02-21T15:45:27.143Z,17.92
2018-02-21T15:47:53.894Z,17.60
2018-02-21T15:50:20.630Z,17.80
2018-02-21T15:52:47.981Z,18.05
2018-02-21T15:55:14.645Z,18.55
2018-02-21T15:57:42.281Z,19.08
2018-02-21T16:00:08.959Z,19.65
2018-02-21T16:02:35.663Z,17.27
2018-02-21T16:05:02.350Z,18.15
2018-02-21T16:07:29.009Z,18.30
2018-02-21T16:09:55.681Z,18.55
2018-02-21T16:12:22.341Z,17.40
2018-02-21T16:14:49.902Z,18.55
2018-02-21T16:17:16.570Z,17.30
2018-02-21T16:19:43.440Z,16.50
2018-02-21T16:22:10.118Z,16.35
2018-02-21T16:24:36.810Z,14.82
2018-02-21T16:27:07.659Z,15.43
2018-02-21T16:29:34.430Z,17.12
2018-02-21T16:32:01.133Z,14.35
2018-02-21T16:34:27.826Z,18.30
2018-02-21T16:36:54.624Z,17.37
2018-02-21T16:39:21.333Z,16.00
2018-02-21T16:41:48.008Z,15.88
2018-02-21T16:44:14.633Z,16.62
2018-02-21T16:46:45.063Z,15.93
2018-02-21T16:49:11.724Z,15.88
2018-02-21T16:51:38.440Z,16.95
2018-02-21T16:54:12.879Z,16.73
2018-02-21T16:56:39.596Z,21.05
2018-02-21T16:59:06.320Z,17.15
2018-02-21T17:01:33.006Z,15.32
2018-02-21T17:03:59.695Z,14.63
2018-02-21T17:06:26.333Z,15.00
2018-02-21T17:08:53.504Z,13.55
2018-02-21T17:11:21.111Z,13.75
2018-02-21T17:13:47.856Z,16.23
2018-02-21T17:16:14.501Z,14.68
2018-02-21T17:18:41.228Z,13.55
2018-02-21T17:21:12.433Z,15.38
2018-02-21T17:23:39.068Z,13.65
2018-02-21T17:26:05.756Z,13.85
2018-02-21T17:28:36.415Z,15.43
2018-02-21T17:31:03.959Z,16.10
2018-02-21T17:33:30.600Z,14.35
2018-02-21T17:35:57.269Z,16.12
2018-02-21T17:38:24.046Z,14.55
2018-02-21T17:41:00.874Z,14.77
2018-02-21T17:43:27.577Z,14.15
2018-02-21T17:45:54.305Z,13.02
2018-02-21T17:48:20.951Z,15.05
2018-02-21T17:50:47.736Z,15.75
2018-02-21T17:53:15.285Z,16.15
2018-02-21T17:55:43.232Z,14.82
2018-02-21T17:58:10.768Z,14.60
2018-02-21T18:00:41.651Z,13.93
2018-02-21T18:03:18.068Z,15.13
2018-02-21T18:05:51.145Z,15.65
2018-02-21T18:08:26.357Z,14.82
2018-02-21T18:10:53.555Z,15.52
2018-02-21T18:13:20.262Z,13.25
2018-02-21T18:15:51.027Z,14.98
2018-02-21T18:18:19.844Z,14.55
2018-02-21T18:20:46.564Z,14.60
2018-02-21T18:23:14.080Z,13.70
2018-02-21T18:25:40.842Z,15.60
2018-02-21T18:28:14.398Z,13.13
2018-02-21T18:30:41.288Z,13.75
2018-02-21T18:33:08.712Z,14.38
2018-02-21T18:35:36.087Z,16.12
2018-02-21T18:38:03.465Z,19.98
2018-02-21T18:40:30.185Z,21.60
2018-02-21T18:42:58.554Z,17.45
2018-02-21T18:45:25.366Z,14.77
2018-02-21T18:47:52.604Z,16.52
2018-02-21T18:50:19.517Z,13.35
2018-02-21T18:52:50.216Z,13.85
2018-02-21T18:55:22.685Z,13.57
2018-02-21T18:57:51.296Z,13.32
2018-02-21T19:00:19.369Z,14.73
2018-02-21T19:02:52.217Z,14.77
2018-02-21T19:05:29.867Z,15.00
2018-02-21T19:08:04.415Z,15.35
2018-02-21T19:10:32.858Z,15.68
2018-02-21T19:13:07.075Z,15.35
2018-02-21T19:15:37.640Z,15.45
2018-02-21T19:18:09.315Z,15.80
2018-02-21T19:20:40.448Z,13.32
2018-02-21T19:23:08.116Z,13.50
2018-02-21T19:25:35.750Z,14.32
2018-02-21T19:28:06.088Z,14.20
2018-02-21T19:30:34.044Z,14.52
2018-02-21T19:33:02.603Z,14.32
2018-02-21T19:35:35.216Z,13.15
2018-02-21T19:38:03.815Z,13.55
2018-02-21T19:40:30.665Z,14.70
2018-02-21T19:42:58.462Z,15.15
2018-02-21T19:45:36.951Z,15.35
2018-02-21T19:48:04.334Z,14.90
2018-02-21T19:50:39.605Z,15.55
2018-02-21T19:53:14.728Z,13.30
2018-02-21T19:55:47.110Z,16.08
2018-02-21T19:58:14.832Z,15.82
2018-02-21T20:00:42.412Z,16.15
2018-02-21T20:03:16.574Z,14.18
2018-02-21T20:05:44.641Z,15.13
2018-02-21T20:08:17.059Z,15.70
2018-02-21T20:10:53.031Z,14.57
2018-02-21T20:13:21.147Z,15.40
2018-02-21T20:15:49.202Z,14.90
2018-02-21T20:18:23.130Z,13.70
2018-02-21T20:20:53.957Z,14.73
2018-02-21T20:23:29.983Z,13.75
2018-02-21T20:26:01.437Z,14.18
2018-02-21T20:28:36.330Z,14.60
2018-02-21T20:31:05.771Z,12.65
2018-02-21T20:33:33.093Z,17.65
2018-02-21T20:36:01.010Z,23.67
2018-02-21T20:38:30.812Z,16.08
2018-02-21T20:41:06.051Z,15.05
2018-02-21T20:43:37.627Z,15.02
2018-02-21T20:46:06.013Z,16.05
2018-02-21T20:48:35.853Z,15.80
2018-02-21T20:51:09.001Z,15.32
2018-02-21T20:53:41.640Z,16.60
2018-02-21T20:56:13.100Z,14.87
2018-02-21T20:58:44.685Z,13.68
2018-02-21T21:01:12.557Z,14.93
2018-02-21T21:03:43.786Z,15.00
2018-02-21T21:06:16.136Z,15.50
2018-02-21T21:08:45.422Z,14.80
2018-02-21T21:11:18.108Z,15.95
2018-02-21T21:13:51.035Z,14.18
2018-02-21T21:16:21.182Z,15.32
2018-02-21T21:18:48.556Z,15.50
2018-02-21T21:21:20.884Z,14.60
2018-02-21T21:23:48.853Z,15.57
2018-02-21T21:26:16.785Z,14.87
2018-02-21T21:28:50.021Z,16.08
2018-02-21T21:31:23.869Z,16.35
2018-02-21T21:33:50.731Z,18.10
2018-02-21T21:36:22.101Z,19.48
2018-02-21T21:38:49.532Z,22.98
2018-02-21T21:41:35.548Z,17.30
2018-02-21T21:44:08.419Z,16.20
2018-02-21T21:46:45.227Z,14.57
2018-02-21T21:49:19.428Z,16.58
2018-02-21T21:51:46.649Z,15.93
2018-02-21T21:54:14.059Z,16.08
2018-02-21T21:56:41.339Z,14.18
2018-02-21T21:59:08.685Z,16.00
2018-02-21T22:01:36.485Z,15.75
2018-02-21T22:04:15.512Z,18.10
2018-02-21T22:06:50.515Z,16.75
2018-02-21T22:09:18.140Z,16.17
2018-02-21T22:11:50.763Z,16.60
2018-02-21T22:14:22.264Z,16.42
2018-02-21T22:16:50.404Z,16.95
2018-02-21T22:19:29.416Z,16.23
2018-02-21T22:21:57.089Z,16.35
2018-02-21T22:24:36.571Z,16.75
2018-02-21T22:27:07.500Z,15.07
2018-02-21T22:29:43.522Z,16.20
2018-02-21T22:32:11.976Z,14.25
2018-02-21T22:34:42.485Z,14.30
2018-02-21T22:37:15.516Z,16.20
2018-02-21T22:40:02.680Z,14.60
2018-02-21T22:42:43.410Z,16.17
2018-02-21T22:45:12.707Z,15.68
2018-02-21T22:47:40.333Z,14.60
2018-02-21T22:50:16.908Z,14.48
2018-02-21T22:52:47.840Z,14.23
2018-02-21T22:55:24.664Z,15.77
2018-02-21T22:57:55.280Z,15.00
2018-02-21T23:00:23.294Z,15.07
2018-02-21T23:02:50.512Z,14.38
2018-02-21T23:05:23.234Z,15.38
2018-02-21T23:07:57.652Z,16.58
2018-02-21T23:10:29.154Z,15.02
2018-02-21T23:12:56.470Z,15.68
2018-02-21T23:15:26.104Z,14.43
2018-02-21T23:27:41.849Z,13.00
2018-02-21T23:30:17.014Z,14.18
2018-02-21T23:32:59.264Z,14.70
2018-02-21T23:35:43.669Z,15.02
2018-02-21T23:38:14.480Z,12.85
2018-02-21T23:40:41.437Z,14.27
2018-02-21T23:43:12.635Z,14.10
2018-02-21T23:45:43.989Z,15.38
2018-02-21T23:48:13.592Z,15.18
2018-02-21T23:50:40.283Z,15.75
2018-02-21T23:53:11.363Z,15.15
2018-02-21T23:55:45.252Z,15.85
2018-02-21T23:58:15.928Z,14.95
